Time;durP1;ratioP1;P1;durP2;ratioP2;P2;SDS_P1;SDS_P2;PMS_P1;PMS_P2;Temp;Humidity;BMP_temperature;BMP_pressure;BME280_temperature;BME280_humidity;BME280_pressure;Samples;Min_cycle;Max_cycle;Signal;HPM_P1;HPM_P2
2022/09/21 00:01:30;;;;;;;3.87;1.70;;;;;;;11.89;100.00;96742.34;5050566;28;20221;-77
2022/09/21 00:03:59;;;;;;;4.60;1.53;;;;;;;11.88;100.00;96729.88;5055677;28;20222;-77
2022/09/21 00:06:27;;;;;;;4.13;1.93;;;;;;;11.90;100.00;96730.47;5053430;28;20298;-76
2022/09/21 00:08:56;;;;;;;3.07;1.90;;;;;;;11.81;100.00;96733.72;5053367;28;20213;-76
2022/09/21 00:11:26;;;;;;;2.57;1.87;;;;;;;11.82;100.00;96738.06;5052896;28;20213;-77
2022/09/21 00:13:54;;;;;;;4.17;1.90;;;;;;;11.78;100.00;96737.69;5053571;28;20209;-76
2022/09/21 00:16:23;;;;;;;4.83;2.40;;;;;;;11.70;100.00;96733.41;5060069;28;20222;-77
2022/09/21 00:18:50;;;;;;;5.93;1.90;;;;;;;11.75;100.00;96738.13;5053988;28;20317;-76
2022/09/21 00:21:18;;;;;;;2.70;1.70;;;;;;;11.73;100.00;96734.81;5053237;28;20206;-77
2022/09/21 00:23:45;;;;;;;3.60;2.17;;;;;;;11.68;100.00;96737.38;5054223;28;20214;-77
2022/09/21 00:26:13;;;;;;;4.40;1.93;;;;;;;11.70;100.00;96730.69;5056468;28;20226;-77
2022/09/21 00:28:41;;;;;;;4.27;1.93;;;;;;;11.70;100.00;96724.44;5051914;28;20210;-74
2022/09/21 00:31:11;;;;;;;4.10;1.80;;;;;;;11.67;100.00;96727.59;5052155;28;20213;-76
2022/09/21 00:33:40;;;;;;;3.37;2.03;;;;;;;11.66;100.00;96731.34;5052745;28;20202;-76
2022/09/21 00:36:09;;;;;;;4.40;1.70;;;;;;;11.66;100.00;96732.19;5051500;28;20289;-76
2022/09/21 00:38:37;;;;;;;4.00;1.87;;;;;;;11.69;100.00;96726.31;5051185;28;20312;-77
2022/09/21 00:41:05;;;;;;;1.60;1.47;;;;;;;11.71;100.00;96729.63;5051424;28;20206;-76
2022/09/21 00:43:34;;;;;;;4.50;1.77;;;;;;;11.59;100.00;96723.34;5057052;28;20289;-76
2022/09/21 00:46:04;;;;;;;5.23;1.90;;;;;;;11.56;100.00;96731.09;5050267;28;20206;-77
2022/09/21 00:48:32;;;;;;;6.40;1.77;;;;;;;11.53;100.00;96728.84;5062795;28;20210;-77
2022/09/21 00:51:06;;;;;;;4.07;1.90;;;;;;;11.48;100.00;96724.13;5054684;28;20205;-76
2022/09/21 00:53:35;;;;;;;3.40;1.80;;;;;;;11.43;100.00;96725.81;5053891;28;20220;-76
2022/09/21 00:56:04;;;;;;;3.43;1.83;;;;;;;11.37;100.00;96725.69;5052899;28;20269;-77
2022/09/21 00:58:39;;;;;;;3.97;1.63;;;;;;;11.35;100.00;96725.09;5053214;28;20214;-75
2022/09/21 01:01:06;;;;;;;2.50;1.90;;;;;;;11.31;100.00;96726.56;5053830;28;20209;-76
2022/09/21 01:03:34;;;;;;;4.27;1.63;;;;;;;11.25;100.00;96727.47;5059976;28;20249;-77
2022/09/21 01:06:02;;;;;;;3.10;1.77;;;;;;;11.15;100.00;96721.78;5051108;28;20220;-77
2022/09/21 01:08:30;;;;;;;2.60;1.70;;;;;;;11.08;100.00;96734.53;5052720;28;20256;-77
2022/09/21 01:11:17;;;;;;;2.23;1.60;;;;;;;11.11;100.00;96731.38;5049395;28;20213;-77
2022/09/21 01:13:58;;;;;;;3.27;1.60;;;;;;;11.05;100.00;96731.47;5050650;28;20206;-77
2022/09/21 01:16:31;;;;;;;5.13;1.70;;;;;;;11.05;100.00;96732.28;5060364;28;20229;-76
2022/09/21 01:19:07;;;;;;;2.00;1.70;;;;;;;10.96;100.00;96734.47;5049380;28;20221;-76
2022/09/21 01:21:41;;;;;;;2.50;1.50;;;;;;;10.94;100.00;96736.56;5054128;28;20310;-77
2022/09/21 01:24:34;;;;;;;3.80;1.60;;;;;;;10.90;100.00;96729.09;5056181;28;20218;-76
2022/09/21 01:27:38;;;;;;;3.63;1.60;;;;;;;10.85;100.00;96731.66;5055460;28;20298;-76
2022/09/21 01:30:12;;;;;;;2.90;1.50;;;;;;;10.79;100.00;96736.09;5048056;28;20216;-76
2022/09/21 01:32:43;;;;;;;2.80;1.63;;;;;;;10.79;100.00;96732.56;5058640;28;20279;-77
2022/09/21 01:35:16;;;;;;;5.43;1.70;;;;;;;10.77;100.00;96740.03;5051793;28;20215;-77
2022/09/21 01:37:47;;;;;;;3.77;1.80;;;;;;;10.75;100.00;96726.75;5048230;28;20226;-77
2022/09/21 01:40:20;;;;;;;3.70;1.83;;;;;;;10.65;100.00;96729.13;5053785;28;20298;-77
2022/09/21 01:42:50;;;;;;;3.77;1.73;;;;;;;10.73;100.00;96738.81;5054287;28;20212;-77
2022/09/21 01:45:27;;;;;;;4.17;2.00;;;;;;;10.60;100.00;96735.22;5054180;28;20229;-77
2022/09/21 01:47:57;;;;;;;3.70;1.50;;;;;;;10.53;100.00;96731.75;5056106;28;20197;-76
2022/09/21 01:50:25;;;;;;;2.33;1.33;;;;;;;10.48;100.00;96736.97;5046144;28;20293;-77
2022/09/21 01:53:01;;;;;;;1.90;1.50;;;;;;;10.37;100.00;96737.69;5058267;28;20219;-75
2022/09/21 01:55:32;;;;;;;6.33;1.67;;;;;;;10.28;100.00;96740.88;5051914;28;20194;-76
2022/09/21 01:58:05;;;;;;;4.73;1.60;;;;;;;10.33;100.00;96739.16;5060111;28;20226;-77
2022/09/21 02:00:35;;;;;;;3.33;1.63;;;;;;;10.45;100.00;96745.50;5062340;28;20205;-77
2022/09/21 02:03:09;;;;;;;3.63;1.90;;;;;;;10.50;100.00;96742.16;5059755;28;20212;-76
2022/09/21 02:05:37;;;;;;;2.13;1.70;;;;;;;10.47;100.00;96746.09;5053603;28;20221;-77
2022/09/21 02:08:06;;;;;;;3.07;2.10;;;;;;;10.40;100.00;96745.31;5051599;28;20196;-77
2022/09/21 02:10:38;;;;;;;3.37;1.50;;;;;;;10.36;100.00;96754.94;5057872;28;20297;-77
2022/09/21 02:13:08;;;;;;;5.23;1.80;;;;;;;10.35;100.00;96749.75;5058659;28;20212;-77
2022/09/21 02:15:52;;;;;;;3.07;1.33;;;;;;;10.30;100.00;96755.78;5065170;28;20261;-74
2022/09/21 02:18:35;;;;;;;1.73;1.63;;;;;;;10.19;100.00;96754.63;5059621;28;20565;-77
2022/09/21 02:21:07;;;;;;;7.73;1.83;;;;;;;10.10;100.00;96757.78;5054399;28;20210;-76
2022/09/21 02:23:42;;;;;;;3.60;2.17;;;;;;;10.04;100.00;96750.53;5052956;28;20264;-77
2022/09/21 02:26:15;;;;;;;3.20;1.60;;;;;;;10.03;100.00;96760.50;5071405;28;20236;-76
2022/09/21 02:28:48;;;;;;;5.30;1.87;;;;;;;9.96;100.00;96759.69;5053979;28;20229;-77
2022/09/21 02:31:26;;;;;;;2.90;2.00;;;;;;;9.85;100.00;96753.16;5061407;28;20209;-77
2022/09/21 02:33:59;;;;;;;3.83;1.83;;;;;;;9.78;100.00;96757.72;5054557;28;20214;-77
2022/09/21 02:36:35;;;;;;;4.00;1.90;;;;;;;9.71;100.00;96754.22;5054868;28;20210;-77
2022/09/21 02:39:07;;;;;;;5.23;2.17;;;;;;;9.71;100.00;96753.41;5063397;28;20303;-77
2022/09/21 02:41:40;;;;;;;4.57;2.10;;;;;;;9.69;100.00;96750.94;5061243;28;20209;-77
2022/09/21 02:44:12;;;;;;;3.87;2.10;;;;;;;9.63;100.00;96750.94;5054076;28;20206;-77
2022/09/21 02:46:53;;;;;;;4.07;2.03;;;;;;;9.51;100.00;96753.50;5054242;28;20194;-76
2022/09/21 02:49:25;;;;;;;2.27;1.80;;;;;;;9.50;100.00;96754.56;5062917;28;20256;-75
2022/09/21 02:51:57;;;;;;;2.03;1.73;;;;;;;9.51;100.00;96755.38;5056440;28;20202;-77
2022/09/21 02:54:29;;;;;;;2.43;1.80;;;;;;;9.55;100.00;96757.41;5055916;28;20261;-77
2022/09/21 02:56:58;;;;;;;2.30;1.80;;;;;;;9.47;100.00;96760.34;5063051;28;20312;-76
2022/09/21 02:59:26;;;;;;;3.13;2.00;;;;;;;9.42;100.00;96758.31;5051663;28;20241;-76
2022/09/21 03:01:55;;;;;;;3.13;1.73;;;;;;;9.39;100.00;96763.28;5063481;28;20272;-76
2022/09/21 03:04:23;;;;;;;4.13;1.97;;;;;;;9.39;100.00;96757.91;5049911;28;20219;-77
2022/09/21 03:06:50;;;;;;;5.37;2.83;;;;;;;9.35;100.00;96756.69;5055186;28;20212;-77
2022/09/21 03:09:17;;;;;;;4.60;2.33;;;;;;;9.32;100.00;96754.41;5060446;28;20199;-77
2022/09/21 03:11:44;;;;;;;2.87;1.83;;;;;;;9.39;100.00;96752.50;5055775;28;20198;-77
2022/09/21 03:14:11;;;;;;;4.60;2.40;;;;;;;9.35;100.00;96754.81;5055923;28;20202;-75
2022/09/21 03:16:39;;;;;;;4.20;1.93;;;;;;;9.29;100.00;96746.72;5058692;28;20229;-76
2022/09/21 03:19:08;;;;;;;2.40;1.93;;;;;;;9.16;100.00;96752.19;5048991;28;20316;-76
2022/09/21 03:21:35;;;;;;;5.67;1.90;;;;;;;9.10;100.00;96751.16;5053691;28;20243;-76
2022/09/21 03:24:02;;;;;;;2.73;2.20;;;;;;;9.11;100.00;96744.72;5055091;28;20198;-78
2022/09/21 03:26:29;;;;;;;3.40;2.40;;;;;;;9.17;100.00;96748.44;5050802;28;20221;-78
2022/09/21 03:28:56;;;;;;;5.73;2.37;;;;;;;9.19;100.00;96744.47;5050007;28;20209;-76
2022/09/21 03:31:23;;;;;;;2.77;1.80;;;;;;;9.23;100.00;96747.59;5053038;28;20202;-78
2022/09/21 03:33:51;;;;;;;2.40;1.83;;;;;;;9.25;100.00;96748.22;5060808;28;20220;-78
2022/09/21 03:36:19;;;;;;;4.43;2.00;;;;;;;9.23;100.00;96750.28;5059640;28;20210;-78
2022/09/21 03:38:46;;;;;;;2.83;2.00;;;;;;;9.16;100.00;96746.78;5056653;28;20217;-78
2022/09/21 03:41:14;;;;;;;4.50;1.97;;;;;;;9.08;100.00;96745.97;5054748;28;20212;-78
2022/09/21 03:43:41;;;;;;;7.07;4.40;;;;;;;9.03;100.00;96753.03;5062197;28;20215;-77
2022/09/21 03:46:08;;;;;;;7.33;3.63;;;;;;;8.99;100.00;96747.25;5055824;28;20206;-78
2022/09/21 03:48:35;;;;;;;5.07;2.40;;;;;;;9.02;100.00;96754.88;5053938;28;20210;-79
2022/09/21 03:51:02;;;;;;;3.77;2.03;;;;;;;9.00;100.00;96759.69;5053843;28;20210;-78
2022/09/21 03:53:30;;;;;;;3.93;1.83;;;;;;;9.09;100.00;96763.81;5053116;28;20210;-79
2022/09/21 03:55:57;;;;;;;3.53;1.80;;;;;;;9.04;100.00;96757.38;5060091;28;20205;-79
2022/09/21 03:58:25;;;;;;;2.33;1.90;;;;;;;8.96;100.00;96744.97;5054137;28;20244;-79
2022/09/21 04:00:53;;;;;;;6.10;1.73;;;;;;;9.03;100.00;96759.25;5051997;28;20201;-78
2022/09/21 04:03:20;;;;;;;3.23;1.80;;;;;;;8.99;100.00;96754.50;5056897;28;20214;-79
2022/09/21 04:05:48;;;;;;;3.17;1.93;;;;;;;9.01;100.00;96766.72;5062462;28;20205;-79
2022/09/21 04:08:15;;;;;;;6.17;3.17;;;;;;;8.97;100.00;96764.66;5057671;28;20230;-78
2022/09/21 04:10:43;;;;;;;3.70;2.00;;;;;;;8.96;100.00;96752.22;5054792;28;20202;-78
2022/09/21 04:13:11;;;;;;;5.07;2.37;;;;;;;8.89;100.00;96751.41;5052826;28;20431;-78
2022/09/21 04:15:38;;;;;;;8.03;2.10;;;;;;;8.98;100.00;96750.16;5049366;28;20218;-79
2022/09/21 04:18:06;;;;;;;4.43;2.37;;;;;;;8.89;100.00;96746.84;5057222;28;20218;-79
2022/09/21 04:20:33;;;;;;;2.80;1.70;;;;;;;8.87;100.00;96748.91;5064483;28;20297;-78
2022/09/21 04:23:01;;;;;;;2.50;2.17;;;;;;;8.87;100.00;96758.84;5054407;28;20264;-78
2022/09/21 04:25:27;;;;;;;3.47;2.20;;;;;;;8.88;100.00;96761.34;5059635;28;20198;-78
2022/09/21 04:27:56;;;;;;;5.03;2.30;;;;;;;8.93;100.00;96755.34;5057500;28;20233;-79
2022/09/21 04:30:23;;;;;;;4.77;2.23;;;;;;;8.92;100.00;96751.81;5058349;28;20220;-78
2022/09/21 04:32:50;;;;;;;8.27;4.20;;;;;;;8.93;100.00;96758.84;5056887;28;20267;-78
2022/09/21 04:35:17;;;;;;;5.80;2.30;;;;;;;8.89;100.00;96765.69;5051931;28;20212;-78
2022/09/21 04:37:44;;;;;;;3.83;2.17;;;;;;;8.81;100.00;96757.84;5056597;28;20202;-77
2022/09/21 04:40:11;;;;;;;3.03;1.90;;;;;;;8.77;100.00;96759.28;5059285;28;20225;-78
2022/09/21 04:42:39;;;;;;;3.47;2.00;;;;;;;8.78;100.00;96763.63;5050236;28;20207;-78
2022/09/21 04:45:08;;;;;;;3.83;2.23;;;;;;;8.73;100.00;96764.28;5050189;28;20273;-78
2022/09/21 04:47:36;;;;;;;3.73;2.20;;;;;;;8.76;100.00;96762.22;5052499;28;20218;-78
2022/09/21 04:50:03;;;;;;;5.50;2.50;;;;;;;8.89;100.00;96762.16;5052741;28;20263;-78
2022/09/21 04:52:30;;;;;;;2.63;2.00;;;;;;;8.94;100.00;96762.34;5052336;28;20202;-78
2022/09/21 04:54:58;;;;;;;3.50;2.20;;;;;;;8.95;100.00;96777.47;5054638;28;20209;-78
2022/09/21 04:57:25;;;;;;;4.23;2.37;;;;;;;8.95;100.00;96775.63;5052639;28;20210;-78
2022/09/21 04:59:52;;;;;;;4.53;2.30;;;;;;;9.00;100.00;96770.44;5060374;28;20217;-78
2022/09/21 05:02:20;;;;;;;2.00;1.80;;;;;;;9.04;100.00;96766.28;5051534;28;20210;-79
2022/09/21 05:04:48;;;;;;;5.10;2.20;;;;;;;8.94;100.00;96765.88;5055718;28;20216;-77
2022/09/21 05:07:15;;;;;;;2.40;1.93;;;;;;;8.90;100.00;96778.13;5051733;28;20273;-79
2022/09/21 05:12:27;;;;;;;2.53;1.60;;;;;;;8.68;100.00;96772.13;5052269;28;20205;-76
2022/09/21 05:14:54;;;;;;;5.03;2.00;;;;;;;8.61;100.00;96770.47;5048296;28;20226;-75
2022/09/21 05:17:23;;;;;;;8.27;2.43;;;;;;;8.63;100.00;96771.94;5052906;28;20253;-76
2022/09/21 05:19:50;;;;;;;4.40;2.10;;;;;;;8.65;100.00;96777.13;5055274;28;20228;-75
2022/09/21 05:22:19;;;;;;;4.20;1.70;;;;;;;8.67;100.00;96775.06;5046969;28;20323;-76
2022/09/21 05:24:46;;;;;;;3.47;2.03;;;;;;;8.69;100.00;96784.56;5051488;28;20258;-76
2022/09/21 05:27:13;;;;;;;7.10;4.77;;;;;;;8.69;100.00;96784.56;5051949;28;20202;-75
2022/09/21 05:29:41;;;;;;;5.30;3.00;;;;;;;8.68;100.00;96787.44;5056231;28;20214;-76
2022/09/21 05:32:24;;;;;;;7.80;2.90;;;;;;;8.66;100.00;96787.69;5056538;28;20205;-76
2022/09/21 05:35:06;;;;;;;5.60;2.20;;;;;;;8.66;100.00;96795.75;5065041;28;20226;-77
2022/09/21 05:37:44;;;;;;;3.20;2.20;;;;;;;8.59;100.00;96789.53;5051271;28;20206;-77
2022/09/21 05:40:12;;;;;;;2.47;2.00;;;;;;;8.48;100.00;96792.84;5052078;28;20268;-78
2022/09/21 05:42:40;;;;;;;5.57;2.67;;;;;;;8.39;100.00;96788.69;5061322;28;20197;-78
2022/09/21 05:45:12;;;;;;;2.60;2.40;;;;;;;8.44;100.00;96791.59;5060176;28;20221;-78
2022/09/21 05:47:49;;;;;;;3.00;2.17;;;;;;;8.42;100.00;96793.66;5049583;28;20297;-78
2022/09/21 05:50:34;;;;;;;3.17;2.00;;;;;;;8.44;100.00;96796.13;5048407;28;20189;-76
2022/09/21 05:53:13;;;;;;;4.67;2.17;;;;;;;8.47;100.00;96791.19;5059564;28;20217;-78
2022/09/21 05:55:50;;;;;;;4.50;1.97;;;;;;;8.47;100.00;96795.75;5050285;28;20243;-79
2022/09/21 05:58:26;;;;;;;3.83;1.87;;;;;;;8.51;100.00;96796.97;5050977;28;20209;-79
2022/09/21 06:01:04;;;;;;;2.60;2.10;;;;;;;8.61;100.00;96792.84;5047198;28;20210;-78
2022/09/21 06:03:34;;;;;;;4.83;2.00;;;;;;;8.58;100.00;96795.97;5051953;28;20209;-77
2022/09/21 06:06:04;;;;;;;4.57;2.27;;;;;;;8.55;100.00;96790.97;5058850;28;20210;-78
2022/09/21 06:08:31;;;;;;;5.80;2.90;;;;;;;8.40;100.00;96795.75;5050144;28;20206;-76
2022/09/21 06:10:58;;;;;;;4.33;2.07;;;;;;;8.40;100.00;96798.44;5058489;28;20279;-76
2022/09/21 06:13:25;;;;;;;3.10;2.20;;;;;;;8.41;100.00;96796.56;5054908;28;20221;-76
2022/09/21 06:15:52;;;;;;;3.60;2.30;;;;;;;8.44;100.00;96798.84;5052812;28;20229;-77
2022/09/21 06:18:19;;;;;;;5.27;2.47;;;;;;;8.45;100.00;96800.50;5059804;28;20276;-77
2022/09/21 06:20:47;;;;;;;2.40;1.90;;;;;;;8.41;100.00;96801.94;5054121;28;20247;-77
2022/09/21 06:23:15;;;;;;;5.97;1.90;;;;;;;8.48;100.00;96795.53;5063316;28;20236;-77
2022/09/21 06:25:42;;;;;;;6.43;2.10;;;;;;;8.45;100.00;96797.81;5065150;28;20202;-77
2022/09/21 06:28:11;;;;;;;4.57;2.10;;;;;;;8.45;100.00;96798.63;5048794;28;20589;-77
2022/09/21 06:30:41;;;;;;;3.73;2.10;;;;;;;8.48;100.00;96803.63;5051724;28;20193;-77
2022/09/21 06:33:08;;;;;;;6.07;1.90;;;;;;;8.47;100.00;96806.50;5048213;28;20241;-78
2022/09/21 06:35:37;;;;;;;4.97;4.30;;;;;;;8.46;100.00;96800.28;5051207;28;20197;-77
2022/09/21 06:38:05;;;;;;;6.03;2.40;;;;;;;8.49;100.00;96809.81;5063648;28;20320;-78
2022/09/21 06:40:36;;;;;;;2.80;2.30;;;;;;;8.53;100.00;96805.66;5058498;28;20230;-77
2022/09/21 06:43:04;;;;;;;5.37;2.47;;;;;;;8.52;100.00;96810.22;5054825;28;20210;-78
2022/09/21 06:45:32;;;;;;;3.70;2.43;;;;;;;8.58;100.00;96813.97;5055709;28;20221;-77
2022/09/21 06:47:59;;;;;;;4.40;2.20;;;;;;;8.55;100.00;96807.13;5050977;28;20198;-78
2022/09/21 06:50:26;;;;;;;4.90;2.27;;;;;;;8.60;100.00;96806.50;5064305;28;20197;-78
2022/09/21 06:52:53;;;;;;;8.97;2.70;;;;;;;8.62;100.00;96804.44;5050221;28;20297;-78
2022/09/21 06:55:20;;;;;;;4.90;2.60;;;;;;;8.64;100.00;96800.50;5058115;28;20202;-78
2022/09/21 06:57:50;;;;;;;4.57;2.13;;;;;;;8.64;100.00;96799.69;5058754;28;20197;-77
2022/09/21 07:00:18;;;;;;;7.07;2.40;;;;;;;8.63;100.00;96798.84;5056861;28;20217;-77
2022/09/21 07:02:45;;;;;;;4.50;2.10;;;;;;;8.62;100.00;96801.75;5050936;28;20226;-78
2022/09/21 07:05:13;;;;;;;2.73;2.30;;;;;;;8.63;100.00;96803.41;5060368;28;20646;-77
2022/09/21 07:07:40;;;;;;;3.23;2.20;;;;;;;8.65;100.00;96791.41;5056272;28;20267;-77
2022/09/21 07:10:08;;;;;;;6.43;2.43;;;;;;;8.66;100.00;96794.94;5055385;28;20289;-77
2022/09/21 07:12:35;;;;;;;2.80;2.00;;;;;;;8.58;100.00;96792.44;5058766;28;20212;-77
2022/09/21 07:15:05;;;;;;;6.27;2.07;;;;;;;8.56;100.00;96795.34;5051175;28;20229;-78
2022/09/21 07:17:33;;;;;;;3.43;1.90;;;;;;;8.60;100.00;96793.03;5056948;28;20210;-75
2022/09/21 07:20:00;;;;;;;4.37;2.50;;;;;;;8.63;100.00;96798.03;5063151;28;20290;-77
2022/09/21 07:22:29;;;;;;;3.83;2.33;;;;;;;8.64;100.00;96786.22;5051707;28;20258;-77
2022/09/21 07:24:56;;;;;;;4.60;2.70;;;;;;;8.63;100.00;96792.63;5058174;28;20221;-77
2022/09/21 07:27:24;;;;;;;4.33;2.43;;;;;;;8.58;100.00;96790.56;5061095;28;20232;-77
2022/09/21 07:29:51;;;;;;;4.60;2.20;;;;;;;8.57;100.00;96785.41;5055027;28;20204;-78
2022/09/21 07:32:20;;;;;;;6.37;2.53;;;;;;;8.60;100.00;96784.97;5056646;28;20200;-78
2022/09/21 07:34:47;;;;;;;3.17;2.20;;;;;;;8.56;100.00;96789.94;5052650;28;20203;-78
2022/09/21 07:37:14;;;;;;;3.53;2.33;;;;;;;8.56;100.00;96789.13;5053836;28;20206;-78
2022/09/21 07:39:41;;;;;;;5.87;2.67;;;;;;;8.65;100.00;96785.19;5059624;28;20213;-77
2022/09/21 07:42:08;;;;;;;4.03;2.33;;;;;;;8.70;100.00;96782.69;5051581;28;20305;-77
2022/09/21 07:44:35;;;;;;;4.73;2.60;;;;;;;8.69;100.00;96789.09;5049174;28;20213;-75
2022/09/21 07:47:02;;;;;;;5.33;2.73;;;;;;;8.75;100.00;96785.59;5058488;28;20236;-77
2022/09/21 07:49:30;;;;;;;3.83;2.43;;;;;;;8.86;100.00;96789.50;5056679;28;20194;-78
2022/09/21 07:51:58;;;;;;;6.73;2.40;;;;;;;8.91;100.00;96792.41;5056055;28;20221;-77
2022/09/21 07:54:25;;;;;;;4.00;2.00;;;;;;;8.89;100.00;96789.94;5058273;28;20210;-78
2022/09/21 07:59:32;;;;;;;4.00;2.50;;;;;;;9.00;100.00;96789.31;5054028;28;20244;-78
2022/09/21 08:01:59;;;;;;;2.87;1.83;;;;;;;9.02;100.00;96786.38;5054906;28;20205;-78
2022/09/21 08:04:26;;;;;;;4.73;2.30;;;;;;;9.01;100.00;96782.88;5055150;28;20210;-78
2022/09/21 08:06:55;;;;;;;3.87;2.13;;;;;;;9.06;100.00;96785.75;5055177;28;20210;-78
2022/09/21 08:09:22;;;;;;;2.87;1.93;;;;;;;9.17;100.00;96784.31;5064179;28;20212;-78
2022/09/21 08:11:50;;;;;;;4.33;1.60;;;;;;;9.34;100.00;96784.66;5050434;28;20217;-78
2022/09/21 08:14:19;;;;;;;3.40;2.03;;;;;;;9.58;100.00;96767.78;5053101;28;20217;-77
2022/09/21 08:16:47;;;;;;;4.17;1.70;;;;;;;9.87;100.00;96772.63;5056962;28;20252;-77
2022/09/21 08:19:13;;;;;;;2.10;1.67;;;;;;;10.14;100.00;96772.47;5057194;28;20269;-78
2022/09/21 08:21:41;;;;;;;3.37;1.87;;;;;;;10.40;100.00;96775.03;5052635;28;20216;-77
2022/09/21 08:24:09;;;;;;;3.17;1.77;;;;;;;10.67;100.00;96764.03;5050585;28;20242;-77
2022/09/21 08:26:37;;;;;;;4.13;1.80;;;;;;;11.01;100.00;96766.19;5064404;28;20605;-77
2022/09/21 08:29:05;;;;;;;1.83;1.63;;;;;;;11.19;100.00;96763.53;5055766;28;20201;-78
2022/09/21 08:31:32;;;;;;;4.00;2.00;;;;;;;11.48;100.00;96761.16;5054997;28;20216;-77
2022/09/21 08:34:00;;;;;;;2.57;1.83;;;;;;;11.75;100.00;96763.31;5055798;28;20206;-77
2022/09/21 08:36:27;;;;;;;2.87;1.80;;;;;;;12.01;100.00;96767.56;5052525;28;20201;-78
2022/09/21 08:38:55;;;;;;;3.80;1.90;;;;;;;12.21;100.00;96766.47;5067394;28;20210;-78
2022/09/21 08:41:42;;;;;;;3.70;1.90;;;;;;;12.55;100.00;96754.91;5054190;28;20307;-78
2022/09/21 08:44:16;;;;;;;5.83;2.23;;;;;;;12.92;100.00;96758.25;5060636;28;20215;-77
2022/09/21 08:46:44;;;;;;;5.03;2.20;;;;;;;13.07;100.00;96760.50;5057763;28;20220;-76
2022/09/21 08:49:16;;;;;;;5.43;2.03;;;;;;;13.27;100.00;96752.03;5063215;28;20240;-77
2022/09/21 08:51:50;;;;;;;3.73;2.20;;;;;;;13.45;99.81;96760.84;5061096;28;20320;-77
2022/09/21 08:54:25;;;;;;;2.53;1.90;;;;;;;13.56;97.35;96762.72;5049656;28;20206;-76
2022/09/21 08:56:53;;;;;;;2.63;2.07;;;;;;;13.57;97.74;96758.09;5048806;28;20225;-76
2022/09/21 08:59:20;;;;;;;3.50;2.10;;;;;;;13.77;96.90;96763.16;5048806;28;20206;-77
2022/09/21 09:01:59;;;;;;;5.43;2.37;;;;;;;13.75;95.67;96754.41;5052616;28;20217;-76
2022/09/21 09:04:34;;;;;;;7.93;2.40;;;;;;;13.88;94.07;96749.53;5052677;28;20252;-77
2022/09/21 09:07:24;;;;;;;4.27;2.40;;;;;;;14.03;91.44;96749.03;5060853;28;20219;-76
2022/09/21 09:10:19;;;;;;;6.23;2.40;;;;;;;14.16;91.93;96746.00;5059258;28;20209;-76
2022/09/21 09:13:03;;;;;;;2.70;2.30;;;;;;;14.41;88.93;96742.13;5051218;28;20205;-77
2022/09/21 09:15:45;;;;;;;4.70;2.30;;;;;;;14.59;87.63;96733.75;5063160;28;20317;-77
2022/09/21 09:18:22;;;;;;;2.97;1.97;;;;;;;14.83;88.38;96723.53;5048843;28;20265;-77
2022/09/21 09:20:56;;;;;;;4.33;2.30;;;;;;;14.98;86.97;96727.31;5056930;28;20222;-77
2022/09/21 09:23:27;;;;;;;4.03;2.43;;;;;;;15.08;83.97;96727.47;5057345;28;20230;-77
2022/09/21 09:25:58;;;;;;;4.43;3.20;;;;;;;15.09;83.95;96726.41;5059013;28;20224;-76
2022/09/21 09:28:33;;;;;;;4.77;2.40;;;;;;;15.04;86.66;96720.91;5059763;28;20210;-77
2022/09/21 09:31:04;;;;;;;5.03;2.83;;;;;;;15.08;86.54;96722.03;5053823;28;20296;-77
2022/09/21 09:33:44;;;;;;;7.10;2.60;;;;;;;15.28;84.06;96715.25;5064127;28;20218;-77
2022/09/21 09:36:13;;;;;;;6.53;2.60;;;;;;;15.26;83.81;96714.66;5051757;28;20209;-77
2022/09/21 09:38:44;;;;;;;5.70;2.73;;;;;;;15.30;84.27;96718.53;5047201;28;20206;-77
2022/09/21 09:41:40;;;;;;;7.37;2.80;;;;;;;15.41;82.62;96720.31;5060120;28;20225;-76
2022/09/21 09:44:19;;;;;;;6.63;2.50;;;;;;;15.53;82.90;96712.84;5046142;28;20255;-77
2022/09/21 09:46:55;;;;;;;5.67;2.80;;;;;;;15.56;82.78;96701.50;5052148;28;20193;-77
2022/09/21 09:49:33;;;;;;;3.73;2.90;;;;;;;15.61;84.96;96706.19;5061972;28;20204;-77
2022/09/21 09:52:02;;;;;;;6.43;2.90;;;;;;;15.69;83.69;96701.09;5056695;28;20227;-77
2022/09/21 09:54:33;;;;;;;6.83;2.97;;;;;;;15.73;83.48;96696.81;5048052;28;20198;-77
2022/09/21 09:57:03;;;;;;;6.20;3.00;;;;;;;15.82;83.89;96689.81;5053629;28;20206;-77
2022/09/21 09:59:38;;;;;;;5.93;3.03;;;;;;;15.91;83.74;96686.66;5065382;28;20236;-77
2022/09/21 10:02:18;;;;;;;3.27;2.70;;;;;;;15.96;82.28;96689.44;5054106;28;20213;-76
2022/09/21 10:05:02;;;;;;;3.70;2.50;;;;;;;16.02;81.86;96672.88;5055762;28;20209;-77
2022/09/21 10:07:38;;;;;;;8.97;3.00;;;;;;;16.25;82.07;96688.09;5049311;28;20209;-77
2022/09/21 10:10:27;;;;;;;6.70;2.90;;;;;;;16.27;80.84;96675.03;5054925;28;20292;-77
2022/09/21 10:12:55;;;;;;;5.37;3.00;;;;;;;16.42;79.30;96672.44;5052551;28;20222;-77
2022/09/21 10:15:25;;;;;;;4.27;3.00;;;;;;;16.56;77.08;96670.94;5056282;28;20222;-77
2022/09/21 10:18:00;;;;;;;6.57;3.13;;;;;;;16.51;76.43;96665.44;5065479;28;20292;-78
2022/09/21 10:20:29;;;;;;;5.30;2.97;;;;;;;16.40;76.28;96674.63;5052922;28;20290;-77
2022/09/21 10:23:00;;;;;;;5.70;2.87;;;;;;;16.44;77.76;96664.00;5051305;28;20230;-77
2022/09/21 10:25:27;;;;;;;4.63;2.73;;;;;;;16.64;78.23;96664.22;5052309;28;20470;-77
2022/09/21 10:27:56;;;;;;;6.90;2.93;;;;;;;16.74;75.79;96658.03;5055867;28;20216;-76
2022/09/21 10:30:37;;;;;;;4.57;2.73;;;;;;;16.94;77.77;96652.69;5052540;28;20209;-77
2022/09/21 10:33:16;;;;;;;3.77;2.50;;;;;;;17.08;75.10;96651.16;5052600;28;20274;-76
2022/09/21 10:35:50;;;;;;;5.17;3.03;;;;;;;17.17;73.49;96646.84;5055521;28;20198;-76
2022/09/21 10:38:19;;;;;;;6.13;2.80;;;;;;;17.20;70.34;96645.47;5063942;28;20234;-77
2022/09/21 10:40:47;;;;;;;4.93;3.03;;;;;;;17.03;71.75;96640.22;5055381;28;20218;-77
2022/09/21 10:43:28;;;;;;;3.00;2.43;;;;;;;17.07;72.74;96646.78;5062588;28;20210;-77
2022/09/21 10:45:57;;;;;;;6.87;2.67;;;;;;;17.19;70.73;96652.84;5063377;28;20202;-77
2022/09/21 10:48:27;;;;;;;4.23;2.50;;;;;;;17.22;71.11;96643.31;5078612;28;20213;-77
2022/09/21 10:50:55;;;;;;;4.17;2.60;;;;;;;17.23;71.94;96634.03;5050050;28;20198;-77
2022/09/21 10:53:27;;;;;;;5.67;2.70;;;;;;;17.16;69.59;96641.66;5061432;28;20202;-77
2022/09/21 10:55:59;;;;;;;3.70;2.40;;;;;;;17.22;68.16;96637.84;5070533;28;20275;-77
2022/09/21 10:58:26;;;;;;;7.63;2.80;;;;;;;17.35;66.53;96631.94;5051008;28;20206;-77
2022/09/21 11:00:54;;;;;;;4.80;2.50;;;;;;;17.36;66.02;96639.00;5052209;28;20229;-76
2022/09/21 11:03:41;;;;;;;3.20;2.67;;;;;;;17.35;65.16;96642.84;5054908;28;20229;-76
2022/09/21 11:06:15;;;;;;;5.47;2.60;;;;;;;17.50;65.97;96628.44;5056021;28;20194;-76
2022/09/21 11:08:49;;;;;;;2.60;2.40;;;;;;;17.71;66.03;96641.91;5062213;28;20248;-77
2022/09/21 11:11:47;;;;;;;5.13;2.70;;;;;;;17.54;65.66;96640.44;5057601;28;20209;-77
2022/09/21 11:14:29;;;;;;;4.30;2.67;;;;;;;17.66;68.22;96635.63;5061554;28;20232;-76
2022/09/21 11:17:02;;;;;;;2.57;2.23;;;;;;;17.74;67.51;96635.94;5056461;28;20268;-76
2022/09/21 11:19:37;;;;;;;3.13;2.50;;;;;;;17.79;65.87;96637.84;5054956;28;20201;-76
2022/09/21 11:22:12;;;;;;;4.53;2.90;;;;;;;17.66;67.21;96638.34;5057919;28;20238;-77
2022/09/21 11:24:48;;;;;;;5.80;2.67;;;;;;;17.62;66.86;96629.03;5056399;28;20236;-76
2022/09/21 11:27:23;;;;;;;4.73;2.57;;;;;;;17.81;65.48;96624.75;5062690;28;20292;-76
2022/09/21 11:30:01;;;;;;;4.33;2.67;;;;;;;17.69;67.09;96624.19;5068490;28;20236;-77
2022/09/21 11:32:53;;;;;;;4.63;2.60;;;;;;;17.82;69.22;96609.19;5053209;28;20213;-77
2022/09/21 11:35:35;;;;;;;9.90;3.03;;;;;;;18.00;69.10;96612.22;5052439;28;20206;-76
2022/09/21 11:38:12;;;;;;;5.90;2.67;;;;;;;18.22;67.14;96605.66;5057401;28;20210;-77
2022/09/21 11:41:18;;;;;;;4.20;2.73;;;;;;;18.20;66.30;96600.50;5052226;28;20241;-77
2022/09/21 11:44:12;;;;;;;4.77;2.57;;;;;;;18.47;66.73;96601.03;5057459;28;20205;-77
2022/09/21 11:46:44;;;;;;;3.67;2.63;;;;;;;18.51;64.95;96601.31;5048658;28;20210;-77
2022/09/21 11:49:29;;;;;;;5.33;2.73;;;;;;;18.50;63.62;96599.66;5052197;28;20301;-78
2022/09/21 11:52:14;;;;;;;4.97;2.83;;;;;;;18.26;65.05;96593.94;5055215;28;20206;-77
2022/09/21 11:55:00;;;;;;;4.33;2.47;;;;;;;18.49;66.60;96589.81;5055649;28;21128;-77
2022/09/21 11:57:31;;;;;;;3.87;2.90;;;;;;;18.45;67.52;96584.09;5063628;28;20213;-77